createdAt,value
2022-08-01T00:00:59.360Z,12.80
2022-08-01T00:03:32.066Z,12.90
2022-08-01T00:06:04.672Z,12.80
2022-08-01T00:08:36.838Z,12.80
2022-08-01T00:11:10.771Z,13.20
2022-08-01T00:13:45.110Z,13.10
2022-08-01T00:16:18.394Z,14.00
2022-08-01T00:18:52.387Z,14.00
2022-08-01T00:21:25.251Z,14.90
2022-08-01T00:24:00.276Z,15.20
2022-08-01T00:26:32.833Z,15.80
2022-08-01T00:29:10.134Z,15.70
2022-08-01T00:31:58.586Z,14.80
2022-08-01T00:34:30.453Z,16.30
2022-08-01T00:37:05.069Z,16.40
2022-08-01T00:39:37.636Z,17.40
2022-08-01T00:42:12.039Z,17.00
2022-08-01T00:44:44.853Z,18.60
2022-08-01T00:47:16.739Z,17.20
2022-08-01T00:49:49.413Z,19.20
2022-08-01T00:52:22.263Z,18.80
2022-08-01T00:54:54.235Z,18.90
2022-08-01T00:58:03.637Z,19.50
2022-08-01T01:00:27.157Z,19.40
2022-08-01T01:03:00.621Z,19.70
2022-08-01T01:05:37.279Z,19.50
2022-08-01T01:08:13.780Z,18.80
2022-08-01T01:10:50.772Z,19.60
2022-08-01T01:13:28.575Z,19.20
2022-08-01T01:16:04.764Z,20.60
2022-08-01T01:18:40.608Z,20.30
2022-08-01T01:21:33.340Z,20.70
2022-08-01T01:24:19.869Z,20.80
2022-08-01T01:26:57.353Z,19.80
2022-08-01T01:29:58.786Z,20.30
2022-08-01T01:32:35.197Z,20.00
2022-08-01T01:35:12.268Z,20.60
2022-08-01T01:37:46.978Z,19.70
2022-08-01T01:40:22.811Z,20.40
2022-08-01T01:42:56.858Z,20.20
2022-08-01T01:45:29.681Z,20.20
2022-08-01T01:48:02.675Z,21.40
2022-08-01T01:50:36.577Z,23.20
2022-08-01T01:53:15.421Z,22.30
2022-08-01T01:55:52.907Z,21.50
2022-08-01T01:58:26.649Z,21.80
2022-08-01T02:01:02.869Z,21.90
2022-08-01T02:03:37.855Z,22.20
2022-08-01T02:06:10.621Z,20.40
2022-08-01T02:08:44.373Z,20.90
2022-08-01T02:11:22.639Z,21.50
2022-08-01T02:14:03.288Z,21.10
2022-08-01T02:16:38.631Z,21.40
2022-08-01T02:19:12.843Z,22.20
2022-08-01T02:21:50.379Z,22.70
2022-08-01T02:24:30.403Z,23.00
2022-08-01T02:27:07.597Z,22.70
2022-08-01T02:29:46.294Z,24.00
2022-08-01T02:32:26.328Z,23.40
2022-08-01T02:35:03.099Z,45.50
2022-08-01T02:37:37.546Z,51.60
2022-08-01T02:40:18.345Z,52.80
2022-08-01T02:42:54.121Z,60.10
2022-08-01T02:45:29.749Z,52.80
2022-08-01T02:48:06.487Z,40.80
2022-08-01T02:50:40.457Z,29.80
2022-08-01T02:53:13.486Z,27.30
2022-08-01T02:55:49.353Z,25.50
2022-08-01T02:58:29.355Z,26.30
2022-08-01T03:01:03.776Z,30.30
2022-08-01T03:03:37.565Z,30.50
2022-08-01T03:06:11.212Z,30.90
2022-08-01T03:08:44.147Z,31.00
2022-08-01T03:11:18.636Z,38.00
2022-08-01T03:13:52.980Z,34.50
2022-08-01T03:16:26.816Z,37.10
2022-08-01T03:19:00.569Z,32.40
2022-08-01T03:21:35.485Z,37.60
2022-08-01T03:24:10.435Z,37.00
2022-08-01T03:26:44.697Z,36.00
2022-08-01T03:29:20.879Z,34.50
2022-08-01T03:31:53.695Z,32.70
2022-08-01T03:34:25.980Z,31.40
2022-08-01T03:37:06.447Z,30.20
2022-08-01T03:39:45.450Z,28.80
2022-08-01T03:42:32.450Z,28.50
2022-08-01T03:45:07.365Z,32.10
2022-08-01T03:47:44.633Z,33.30
2022-08-01T03:50:18.935Z,33.10
2022-08-01T03:52:52.946Z,33.50
2022-08-01T03:55:25.879Z,33.20
2022-08-01T03:57:59.407Z,36.40
2022-08-01T04:00:32.929Z,39.00
2022-08-01T04:03:05.733Z,56.80
2022-08-01T04:05:38.984Z,50.00
2022-08-01T04:08:12.225Z,48.00
2022-08-01T04:10:45.493Z,40.60
2022-08-01T04:13:18.706Z,34.90
2022-08-01T04:15:52.205Z,28.70
2022-08-01T04:18:24.859Z,25.90
2022-08-01T04:20:57.892Z,24.30
2022-08-01T04:23:32.458Z,24.50
2022-08-01T04:26:06.664Z,23.00
2022-08-01T04:28:40.597Z,24.20
2022-08-01T04:31:13.798Z,25.40
2022-08-01T04:33:50.077Z,24.50
2022-08-01T04:36:24.845Z,23.10
2022-08-01T04:39:01.030Z,21.90
2022-08-01T04:41:34.270Z,23.50
2022-08-01T04:44:08.594Z,21.90
2022-08-01T04:46:41.548Z,24.30
2022-08-01T04:49:18.269Z,25.00
2022-08-01T04:52:03.207Z,22.30
2022-08-01T04:54:40.023Z,21.60
2022-08-01T04:57:11.984Z,20.60
2022-08-01T04:59:47.773Z,20.30
2022-08-01T05:02:21.390Z,22.70
2022-08-01T05:04:54.220Z,21.20
2022-08-01T05:07:28.153Z,22.20
2022-08-01T05:10:03.254Z,21.60
2022-08-01T05:12:37.731Z,22.40
2022-08-01T05:15:15.448Z,21.50
2022-08-01T05:17:48.600Z,21.70
2022-08-01T05:20:22.875Z,21.70
2022-08-01T05:22:58.309Z,22.50
2022-08-01T05:25:56.944Z,24.90
2022-08-01T05:28:23.291Z,45.20
2022-08-01T05:30:56.884Z,46.30
2022-08-01T05:33:29.033Z,42.20
2022-08-01T05:36:02.625Z,31.10
2022-08-01T05:38:36.538Z,27.20
2022-08-01T05:41:09.304Z,22.40
2022-08-01T05:43:42.965Z,21.90
2022-08-01T05:46:15.657Z,22.60
2022-08-01T05:48:48.310Z,21.10
2022-08-01T05:51:20.900Z,22.00
2022-08-01T05:53:53.397Z,22.50
2022-08-01T05:56:29.390Z,21.20
2022-08-01T05:59:05.103Z,21.50
2022-08-01T06:01:38.438Z,19.60
2022-08-01T06:04:10.843Z,20.80
2022-08-01T06:06:43.630Z,19.30
2022-08-01T06:09:16.819Z,18.70
2022-08-01T06:11:49.627Z,18.50
2022-08-01T06:14:21.894Z,16.60
2022-08-01T06:16:53.778Z,18.10
2022-08-01T06:19:27.364Z,16.30
2022-08-01T06:22:00.518Z,17.40
2022-08-01T06:24:33.363Z,14.80
2022-08-01T06:27:06.342Z,14.00
2022-08-01T06:29:56.689Z,14.00
2022-08-01T06:32:30.889Z,13.30
2022-08-01T06:35:04.708Z,13.40
2022-08-01T06:37:37.042Z,12.50
2022-08-01T06:40:16.673Z,12.00
2022-08-01T06:42:50.060Z,15.00
2022-08-01T06:45:24.003Z,12.70
2022-08-01T06:47:57.630Z,12.10
2022-08-01T06:50:30.560Z,11.70
2022-08-01T06:53:02.687Z,12.00
2022-08-01T06:55:37.920Z,12.10
2022-08-01T06:58:10.639Z,11.20
2022-08-01T07:00:44.218Z,10.80
2022-08-01T07:03:16.961Z,10.20
2022-08-01T07:05:49.863Z,11.00
2022-08-01T07:08:25.473Z,10.40
2022-08-01T07:11:00.483Z,9.60
2022-08-01T07:13:36.710Z,9.70
2022-08-01T07:16:17.876Z,9.20
2022-08-01T07:18:50.757Z,9.10
2022-08-01T07:21:40.665Z,8.90
2022-08-01T07:24:16.960Z,8.80
2022-08-01T07:26:54.582Z,7.50
2022-08-01T07:29:28.877Z,7.80
2022-08-01T07:32:01.617Z,7.60
2022-08-01T07:34:35.835Z,6.50
2022-08-01T07:37:08.892Z,6.30
2022-08-01T07:39:41.955Z,6.00
2022-08-01T07:42:16.555Z,5.80
2022-08-01T07:44:49.146Z,5.70
2022-08-01T07:47:27.478Z,6.80
2022-08-01T07:50:05.299Z,6.70
2022-08-01T07:52:37.731Z,4.60
2022-08-01T07:55:12.155Z,4.20
2022-08-01T07:57:49.567Z,4.50
2022-08-01T08:00:26.022Z,3.70
2022-08-01T08:03:00.371Z,3.20
2022-08-01T08:05:58.423Z,3.90
2022-08-01T08:08:27.399Z,3.50
2022-08-01T08:10:59.975Z,3.00
2022-08-01T08:13:32.693Z,3.00
2022-08-01T08:16:06.354Z,3.00
2022-08-01T08:18:39.837Z,3.30
2022-08-01T08:21:12.084Z,2.90
2022-08-01T08:24:05.036Z,3.80
2022-08-01T08:26:38.792Z,3.50
2022-08-01T08:29:14.109Z,3.30
2022-08-01T08:31:51.195Z,3.50
2022-08-01T08:34:26.202Z,3.40
2022-08-01T08:36:59.247Z,3.50
2022-08-01T08:39:41.537Z,3.00
2022-08-01T08:42:15.924Z,3.20
2022-08-01T08:44:48.398Z,3.20
2022-08-01T08:47:21.267Z,3.10
2022-08-01T08:49:56.593Z,3.40
2022-08-01T08:52:29.709Z,3.00
2022-08-01T08:55:01.927Z,3.10
2022-08-01T08:57:34.862Z,3.00
2022-08-01T09:00:10.622Z,3.10
2022-08-01T09:02:51.241Z,2.90
2022-08-01T09:05:38.554Z,2.90
2022-08-01T09:08:15.753Z,2.90
2022-08-01T09:10:47.856Z,2.80
2022-08-01T09:13:20.749Z,2.70
2022-08-01T09:15:57.065Z,3.10
2022-08-01T09:18:37.825Z,3.40
2022-08-01T09:21:18.287Z,3.10
2022-08-01T09:23:53.323Z,3.10
2022-08-01T09:26:36.291Z,3.50
2022-08-01T09:29:11.226Z,3.20
2022-08-01T09:31:50.807Z,3.30
2022-08-01T09:34:31.475Z,3.10
2022-08-01T09:37:07.797Z,3.50
2022-08-01T09:39:44.411Z,3.80
2022-08-01T09:42:29.513Z,3.80
2022-08-01T09:45:03.162Z,3.40
2022-08-01T09:47:42.698Z,3.50
2022-08-01T09:50:17.625Z,3.60
2022-08-01T09:52:58.199Z,3.80
2022-08-01T09:55:31.495Z,3.70
2022-08-01T09:58:05.661Z,3.70
2022-08-01T10:00:45.252Z,3.80
2022-08-01T10:03:26.312Z,3.80
2022-08-01T10:06:00.565Z,3.60
2022-08-01T10:08:49.738Z,3.80
2022-08-01T10:11:35.896Z,3.70
2022-08-01T10:14:13.268Z,3.90
2022-08-01T10:16:56.674Z,4.20
2022-08-01T10:19:34.020Z,4.20
2022-08-01T10:22:12.887Z,4.40
2022-08-01T10:24:49.495Z,5.80
2022-08-01T10:27:37.754Z,5.40
2022-08-01T10:30:19.918Z,4.80
2022-08-01T10:32:56.768Z,5.40
2022-08-01T10:35:46.556Z,5.20
2022-08-01T10:38:20.697Z,5.40
2022-08-01T10:40:55.958Z,6.40
2022-08-01T10:43:29.249Z,5.00
2022-08-01T10:46:05.150Z,4.30
2022-08-01T10:48:44.001Z,4.60
2022-08-01T10:51:19.120Z,4.40
2022-08-01T10:53:56.243Z,4.30
2022-08-01T10:56:43.008Z,4.40
2022-08-01T10:59:29.157Z,4.90
2022-08-01T11:02:31.706Z,5.10
2022-08-01T11:05:09.645Z,5.20
2022-08-01T11:07:50.838Z,4.90
2022-08-01T11:10:28.313Z,5.00
2022-08-01T11:13:03.069Z,5.60
2022-08-01T11:15:50.547Z,5.00
2022-08-01T11:18:37.823Z,5.30
2022-08-01T11:21:59.279Z,5.40
2022-08-01T11:24:07.136Z,4.90
2022-08-01T11:26:40.742Z,5.10
2022-08-01T11:29:22.384Z,5.60
2022-08-01T11:31:56.127Z,5.40
2022-08-01T11:34:56.852Z,5.20
2022-08-01T11:37:30.619Z,4.90
2022-08-01T11:40:20.621Z,6.10
2022-08-01T11:43:22.440Z,5.50
2022-08-01T11:45:56.493Z,5.30
2022-08-01T11:48:30.543Z,5.30
2022-08-01T11:51:02.514Z,5.00
2022-08-01T11:53:34.709Z,5.60
2022-08-01T11:56:09.446Z,5.50
2022-08-01T11:58:42.615Z,5.20
2022-08-01T12:01:16.416Z,5.60
2022-08-01T12:03:58.229Z,5.60
2022-08-01T12:06:32.345Z,5.70
2022-08-01T12:09:21.521Z,5.00
2022-08-01T12:11:53.962Z,5.10
2022-08-01T12:14:26.001Z,4.50
2022-08-01T12:16:58.560Z,4.60
2022-08-01T12:19:31.548Z,4.50
2022-08-01T12:22:13.438Z,4.80
2022-08-01T12:24:46.437Z,4.60
2022-08-01T12:27:28.707Z,4.60
2022-08-01T12:30:05.595Z,4.20
2022-08-01T12:32:38.879Z,4.30
2022-08-01T12:35:17.904Z,4.30
2022-08-01T12:37:52.710Z,4.40
2022-08-01T12:40:26.234Z,4.10
2022-08-01T12:43:00.675Z,4.30
2022-08-01T12:45:35.919Z,3.90
2022-08-01T12:48:12.651Z,4.00
2022-08-01T12:50:47.309Z,3.90
2022-08-01T12:53:21.517Z,3.80
2022-08-01T12:56:00.096Z,4.20
2022-08-01T12:58:37.168Z,4.20
2022-08-01T13:01:11.841Z,4.20
2022-08-01T13:03:46.480Z,4.50
2022-08-01T13:06:20.218Z,4.20
2022-08-01T13:08:52.715Z,3.80
2022-08-01T13:11:24.604Z,3.90
2022-08-01T13:13:58.306Z,3.40
2022-08-01T13:16:55.935Z,3.80
2022-08-01T13:19:29.834Z,3.70
2022-08-01T13:22:06.069Z,3.40
2022-08-01T13:24:39.435Z,3.80
2022-08-01T13:27:31.198Z,3.90
2022-08-01T13:30:15.717Z,3.60
2022-08-01T13:32:59.144Z,3.30
2022-08-01T13:35:31.757Z,2.90
2022-08-01T13:38:03.907Z,2.90
2022-08-01T13:40:36.478Z,2.40
2022-08-01T13:43:09.108Z,3.30
2022-08-01T13:45:41.601Z,3.20
2022-08-01T13:48:18.699Z,3.20
2022-08-01T13:51:02.078Z,3.30
2022-08-01T13:53:44.664Z,3.50
2022-08-01T13:56:19.447Z,3.40
2022-08-01T13:58:52.287Z,3.80
2022-08-01T14:01:32.309Z,3.40
2022-08-01T14:04:07.366Z,3.80
2022-08-01T14:06:40.424Z,3.50
2022-08-01T14:09:24.095Z,3.80
2022-08-01T14:11:57.086Z,4.00
2022-08-01T14:14:30.169Z,4.00
2022-08-01T14:17:02.890Z,3.60
2022-08-01T14:19:38.239Z,4.30
2022-08-01T14:22:12.424Z,3.70
2022-08-01T14:24:46.003Z,3.90
2022-08-01T14:27:19.627Z,4.60
2022-08-01T14:30:00.270Z,4.60
2022-08-01T14:32:35.336Z,4.10
2022-08-01T14:35:08.743Z,5.00
2022-08-01T14:37:44.543Z,4.60
2022-08-01T14:40:19.791Z,4.60
2022-08-01T14:42:52.272Z,5.40
2022-08-01T14:45:25.363Z,5.50
2022-08-01T14:47:59.008Z,5.00
2022-08-01T14:50:31.906Z,4.70
2022-08-01T14:53:04.430Z,5.90
2022-08-01T14:55:41.794Z,4.80
2022-08-01T14:58:15.786Z,4.50
2022-08-01T15:00:49.386Z,4.50
2022-08-01T15:03:22.411Z,4.80
2022-08-01T15:05:54.642Z,4.40
2022-08-01T15:08:27.842Z,4.00
2022-08-01T15:11:03.689Z,4.50
2022-08-01T15:13:39.220Z,4.30
2022-08-01T15:16:14.735Z,4.60
2022-08-01T15:18:48.663Z,4.10
2022-08-01T15:21:39.852Z,3.70
2022-08-01T15:24:14.560Z,4.20
2022-08-01T15:26:50.493Z,3.80
2022-08-01T15:29:24.051Z,4.10
2022-08-01T15:31:57.624Z,3.90
2022-08-01T15:34:30.701Z,4.40
2022-08-01T15:37:04.338Z,4.20
2022-08-01T15:39:37.701Z,4.30
2022-08-01T15:42:21.579Z,4.50
2022-08-01T15:44:59.484Z,4.40
2022-08-01T15:47:31.487Z,4.40
2022-08-01T15:50:08.652Z,4.60
2022-08-01T15:52:41.375Z,4.80
2022-08-01T15:55:14.193Z,5.00
2022-08-01T15:57:47.800Z,4.90
2022-08-01T16:00:20.578Z,4.90
2022-08-01T16:02:53.834Z,5.10
2022-08-01T16:05:26.060Z,5.30
2022-08-01T16:08:01.777Z,5.20
2022-08-01T16:10:34.257Z,5.20
2022-08-01T16:13:07.824Z,5.60
2022-08-01T16:15:41.007Z,5.20
2022-08-01T16:18:16.358Z,5.40
2022-08-01T16:20:49.352Z,4.90
2022-08-01T16:23:22.727Z,5.50
2022-08-01T16:25:55.619Z,5.60
2022-08-01T16:28:29.160Z,5.00
2022-08-01T16:31:15.827Z,5.00
2022-08-01T16:34:27.570Z,5.50
2022-08-01T16:37:07.554Z,5.70
2022-08-01T16:39:40.094Z,5.70
2022-08-01T16:42:27.659Z,5.50
2022-08-01T16:45:08.619Z,5.60
2022-08-01T16:48:10.210Z,5.70
2022-08-01T16:51:09.384Z,5.80
2022-08-01T16:53:41.903Z,5.30
2022-08-01T16:56:14.387Z,5.30
2022-08-01T16:58:46.998Z,5.40
2022-08-01T17:01:58.659Z,5.50
2022-08-01T17:04:13.524Z,5.70
2022-08-01T17:06:46.386Z,5.90
2022-08-01T17:09:18.749Z,5.70
2022-08-01T17:11:51.974Z,5.60
2022-08-01T17:14:24.225Z,5.20
2022-08-01T17:16:57.747Z,5.20
2022-08-01T17:19:33.077Z,5.20
2022-08-01T17:22:05.827Z,5.40
2022-08-01T17:24:39.112Z,5.30
2022-08-01T17:27:13.300Z,5.50
2022-08-01T17:29:51.605Z,5.20
2022-08-01T17:32:26.653Z,6.00
2022-08-01T17:35:03.168Z,5.40
2022-08-01T17:37:38.685Z,5.70
2022-08-01T17:40:39.254Z,5.60
2022-08-01T17:43:07.246Z,5.90
2022-08-01T17:45:50.550Z,5.60
2022-08-01T17:48:24.140Z,5.60
2022-08-01T17:50:58.170Z,5.60
2022-08-01T17:53:57.090Z,6.10
2022-08-01T17:56:33.626Z,5.90
2022-08-01T17:59:10.091Z,6.40
2022-08-01T18:01:45.597Z,6.20
2022-08-01T18:04:26.951Z,6.20
2022-08-01T18:07:10.443Z,6.40
2022-08-01T18:10:12.263Z,6.80
2022-08-01T18:12:49.405Z,7.00
2022-08-01T18:15:27.001Z,6.70
2022-08-01T18:18:08.629Z,6.80
2022-08-01T18:20:41.816Z,7.20
2022-08-01T18:23:22.683Z,7.00
2022-08-01T18:26:01.506Z,8.90
2022-08-01T18:28:42.069Z,7.50
2022-08-01T18:31:27.722Z,8.40
2022-08-01T18:34:28.526Z,8.60
2022-08-01T18:37:06.089Z,8.10
2022-08-01T18:39:46.569Z,7.60
2022-08-01T18:42:20.004Z,7.00
2022-08-01T18:44:54.087Z,7.30
2022-08-01T18:47:26.758Z,7.20
2022-08-01T18:50:06.697Z,7.90
2022-08-01T18:52:44.181Z,7.70
2022-08-01T18:55:22.111Z,8.30
2022-08-01T18:57:55.800Z,8.50
2022-08-01T19:00:27.859Z,9.20
2022-08-01T19:03:27.466Z,9.00
2022-08-01T19:06:08.442Z,8.80
2022-08-01T19:09:08.004Z,9.40
2022-08-01T19:12:07.407Z,9.30
2022-08-01T19:14:43.636Z,9.60
2022-08-01T19:17:18.442Z,9.10
2022-08-01T19:19:59.515Z,9.90
2022-08-01T19:22:33.162Z,10.10
2022-08-01T19:25:11.462Z,9.40
2022-08-01T19:27:54.781Z,10.00
2022-08-01T19:30:31.228Z,10.30
2022-08-01T19:33:06.378Z,10.40
2022-08-01T19:35:40.539Z,10.80
2022-08-01T19:38:18.306Z,10.60
2022-08-01T19:40:53.650Z,10.50
2022-08-01T19:44:17.271Z,10.60
2022-08-01T19:50:00.863Z,10.40
2022-08-01T19:52:38.563Z,11.20
2022-08-01T19:55:14.964Z,11.40
2022-08-01T19:58:28.562Z,11.10
2022-08-01T20:01:06.448Z,11.90
2022-08-01T20:03:48.112Z,11.30
2022-08-01T20:06:26.452Z,11.10
2022-08-01T20:09:04.025Z,11.30
2022-08-01T20:11:39.335Z,11.20
2022-08-01T20:14:20.716Z,11.00
2022-08-01T20:17:16.271Z,11.10
2022-08-01T20:19:50.637Z,10.80
2022-08-01T20:22:31.483Z,11.10
2022-08-01T20:25:12.958Z,11.30
2022-08-01T20:27:49.969Z,11.80
2022-08-01T20:30:22.984Z,13.00
2022-08-01T20:33:00.039Z,10.80
2022-08-01T20:35:52.316Z,10.90
2022-08-01T20:38:52.708Z,11.50
2022-08-01T20:41:33.377Z,11.90
2022-08-01T20:44:17.433Z,12.20
2022-08-01T20:46:52.355Z,12.90
2022-08-01T20:49:27.265Z,13.60
2022-08-01T20:52:11.373Z,13.40
2022-08-01T20:55:18.332Z,13.40
2022-08-01T20:57:53.842Z,14.10
2022-08-01T21:00:49.230Z,14.70
2022-08-01T21:03:27.499Z,14.60
2022-08-01T21:13:01.391Z,12.50
2022-08-01T21:16:23.857Z,12.00
2022-08-01T21:19:49.013Z,10.40
2022-08-01T21:22:55.211Z,9.90
2022-08-01T21:25:34.997Z,9.50
2022-08-01T21:28:10.060Z,9.80
2022-08-01T21:30:55.439Z,10.00
2022-08-01T21:36:59.579Z,10.60
2022-08-01T21:39:35.749Z,10.40
2022-08-01T21:42:15.184Z,10.70
2022-08-01T21:44:51.988Z,10.50
2022-08-01T21:47:54.888Z,10.50
2022-08-01T21:50:37.155Z,9.90
2022-08-01T21:53:17.014Z,10.30
2022-08-01T21:56:33.209Z,9.80
2022-08-01T21:59:40.560Z,9.10
2022-08-01T22:02:19.709Z,9.50
2022-08-01T22:04:59.283Z,10.00
2022-08-01T22:07:41.356Z,9.80
2022-08-01T22:13:22.451Z,10.30
2022-08-01T22:15:59.165Z,9.80
2022-08-01T22:18:35.943Z,10.20
2022-08-01T22:21:12.267Z,10.70
2022-08-01T22:23:46.428Z,10.60
2022-08-01T22:26:24.662Z,11.50
2022-08-01T22:29:09.740Z,11.00
2022-08-01T22:31:48.766Z,11.10
2022-08-01T22:34:23.138Z,11.20
2022-08-01T22:37:55.874Z,11.30
2022-08-01T22:41:11.370Z,11.00
2022-08-01T22:44:14.681Z,11.60
2022-08-01T22:47:21.487Z,12.90
2022-08-01T22:50:09.950Z,11.70
2022-08-01T22:52:56.194Z,11.30
2022-08-01T22:55:57.790Z,11.70
2022-08-01T22:58:51.841Z,11.30
2022-08-01T23:01:53.705Z,11.50
2022-08-01T23:04:35.049Z,11.70
2022-08-01T23:07:10.190Z,11.40
2022-08-01T23:09:53.873Z,11.30
2022-08-01T23:12:31.407Z,11.50
2022-08-01T23:15:33.923Z,11.30
2022-08-01T23:18:11.339Z,11.40
2022-08-01T23:21:09.098Z,11.60
2022-08-01T23:24:06.372Z,12.70
2022-08-01T23:26:41.806Z,11.80
2022-08-01T23:29:16.897Z,12.80
2022-08-01T23:32:16.656Z,13.40
2022-08-01T23:34:59.776Z,12.20
2022-08-01T23:38:02.887Z,11.80
2022-08-01T23:40:38.976Z,11.10
2022-08-01T23:43:14.617Z,11.20
2022-08-01T23:46:19.130Z,11.50
2022-08-01T23:48:52.922Z,11.70
2022-08-01T23:51:28.553Z,10.80
2022-08-01T23:54:26.563Z,12.10
2022-08-01T23:57:03.787Z,11.30
2022-08-01T23:59:52.986Z,11.40
